createdAt,value
2023-01-17T00:00:11.561Z,7.36
2023-01-17T00:02:39.353Z,7.37
2023-01-17T00:05:27.025Z,7.36
2023-01-17T00:08:12.437Z,7.32
2023-01-17T00:10:40.733Z,7.32
2023-01-17T00:13:08.765Z,7.28
2023-01-17T00:15:37.814Z,7.36
2023-01-17T00:18:05.990Z,7.35
2023-01-17T00:20:52.106Z,7.41
2023-01-17T00:23:42.447Z,7.33
2023-01-17T00:26:15.031Z,7.37
2023-01-17T00:28:43.973Z,7.41
2023-01-17T00:31:12.526Z,7.46
2023-01-17T00:33:40.130Z,7.46
2023-01-17T00:36:08.236Z,7.46
2023-01-17T00:38:37.303Z,7.49
2023-01-17T00:41:06.155Z,7.51
2023-01-17T00:43:52.346Z,7.52
2023-01-17T00:46:38.431Z,7.43
2023-01-17T00:49:28.284Z,7.37
2023-01-17T00:52:14.817Z,7.35
2023-01-17T00:55:00.936Z,7.37
2023-01-17T00:57:46.751Z,7.34
2023-01-17T01:00:35.002Z,7.25
2023-01-17T01:03:21.932Z,7.18
2023-01-17T01:06:08.179Z,7.20
2023-01-17T01:08:54.252Z,7.14
2023-01-17T01:11:40.754Z,7.21
2023-01-17T01:14:28.608Z,7.30
2023-01-17T01:17:14.641Z,7.22
2023-01-17T01:20:01.042Z,7.27
2023-01-17T01:22:46.896Z,7.30
2023-01-17T01:25:33.475Z,7.30
2023-01-17T01:28:25.436Z,7.21
2023-01-17T01:31:11.818Z,7.19
2023-01-17T01:33:39.067Z,7.16
2023-01-17T01:36:09.073Z,7.22
2023-01-17T01:38:37.340Z,7.15
2023-01-17T01:41:05.972Z,7.19
2023-01-17T01:43:53.375Z,7.19
2023-01-17T01:46:22.929Z,7.04
2023-01-17T01:49:20.001Z,7.06
2023-01-17T01:51:50.322Z,7.08
2023-01-17T01:54:20.752Z,7.14
2023-01-17T01:56:49.014Z,7.13
2023-01-17T01:59:17.342Z,7.16
2023-01-17T02:01:45.747Z,7.03
2023-01-17T02:04:16.717Z,7.06
2023-01-17T02:07:08.266Z,7.07
2023-01-17T02:09:39.291Z,7.03
2023-01-17T02:12:06.393Z,7.08
2023-01-17T02:14:34.504Z,7.08
2023-01-17T02:17:22.831Z,7.06
2023-01-17T02:20:23.824Z,6.96
2023-01-17T02:23:02.333Z,7.04
2023-01-17T02:26:07.030Z,7.05
2023-01-17T02:28:45.355Z,6.97
2023-01-17T02:31:12.294Z,7.02
2023-01-17T02:33:51.266Z,7.08
2023-01-17T02:36:29.800Z,6.91
2023-01-17T02:39:08.864Z,6.93
2023-01-17T02:41:41.324Z,6.90
2023-01-17T02:44:12.570Z,6.94
2023-01-17T02:47:16.511Z,6.98
2023-01-17T02:49:43.696Z,7.03
2023-01-17T02:52:22.815Z,7.04
2023-01-17T02:54:52.427Z,7.03
2023-01-17T02:57:36.170Z,7.04
2023-01-17T03:00:15.300Z,7.05
2023-01-17T03:02:48.049Z,7.06
2023-01-17T03:05:20.508Z,7.01
2023-01-17T03:07:48.377Z,7.04
2023-01-17T03:10:15.876Z,7.06
2023-01-17T03:12:43.236Z,7.05
2023-01-17T03:15:13.895Z,6.97
2023-01-17T03:17:51.308Z,6.98
2023-01-17T03:20:22.325Z,6.94
2023-01-17T03:22:50.187Z,6.88
2023-01-17T03:25:17.731Z,6.87
2023-01-17T03:27:45.904Z,6.87
2023-01-17T03:30:14.892Z,6.85
2023-01-17T03:32:42.869Z,6.84
2023-01-17T03:35:11.488Z,6.82
2023-01-17T03:37:39.307Z,6.77
2023-01-17T03:40:13.176Z,6.75
2023-01-17T03:42:40.743Z,6.69
2023-01-17T03:45:10.488Z,6.65
2023-01-17T03:47:38.429Z,6.59
2023-01-17T03:50:06.813Z,6.55
2023-01-17T03:52:34.852Z,6.48
2023-01-17T03:55:02.822Z,6.42
2023-01-17T03:57:31.275Z,6.40
2023-01-17T03:59:59.395Z,6.43
2023-01-17T04:02:27.614Z,6.41
2023-01-17T04:04:55.851Z,6.35
2023-01-17T04:07:23.889Z,6.42
2023-01-17T04:09:51.978Z,6.47
2023-01-17T04:12:19.543Z,6.43
2023-01-17T04:14:51.474Z,6.49
2023-01-17T04:17:19.490Z,6.51
2023-01-17T04:19:47.460Z,6.53
2023-01-17T04:22:15.471Z,6.57
2023-01-17T04:24:42.987Z,6.56
2023-01-17T04:27:14.349Z,6.54
2023-01-17T04:29:42.646Z,6.57
2023-01-17T04:32:11.091Z,6.53
2023-01-17T04:34:39.028Z,6.46
2023-01-17T04:37:06.631Z,6.50
2023-01-17T04:39:34.523Z,6.53
2023-01-17T04:42:03.007Z,6.54
2023-01-17T04:44:30.544Z,6.56
2023-01-17T04:46:58.248Z,6.51
2023-01-17T04:49:26.369Z,6.49
2023-01-17T04:51:54.364Z,6.48
2023-01-17T04:54:22.400Z,6.49
2023-01-17T04:56:50.135Z,6.53
2023-01-17T04:59:18.183Z,6.56
2023-01-17T05:01:46.216Z,6.57
2023-01-17T05:04:13.727Z,6.58
2023-01-17T05:06:41.908Z,6.58
2023-01-17T05:09:10.554Z,6.61
2023-01-17T05:11:38.590Z,6.60
2023-01-17T05:14:06.724Z,6.63
2023-01-17T05:16:35.055Z,6.65
2023-01-17T05:19:03.122Z,6.68
2023-01-17T05:21:31.580Z,6.72
2023-01-17T05:23:59.251Z,6.77
2023-01-17T05:26:26.807Z,6.79
2023-01-17T05:28:55.011Z,6.81
2023-01-17T05:31:22.757Z,6.82
2023-01-17T05:33:50.598Z,6.83
2023-01-17T05:36:21.284Z,6.87
2023-01-17T05:38:49.385Z,6.86
2023-01-17T05:41:17.778Z,6.90
2023-01-17T05:43:45.263Z,6.88
2023-01-17T05:46:12.907Z,6.92
2023-01-17T05:48:40.958Z,6.94
2023-01-17T05:51:08.663Z,6.90
2023-01-17T05:53:36.817Z,6.81
2023-01-17T05:56:05.314Z,6.82
2023-01-17T05:58:33.319Z,6.82
2023-01-17T06:01:01.501Z,6.80
2023-01-17T06:03:29.458Z,6.85
2023-01-17T06:05:57.041Z,6.84
2023-01-17T06:08:24.833Z,6.78
2023-01-17T06:10:52.777Z,6.74
2023-01-17T06:13:23.149Z,6.72
2023-01-17T06:15:51.396Z,6.72
2023-01-17T06:18:18.601Z,6.69
2023-01-17T06:20:46.229Z,6.69
2023-01-17T06:23:14.339Z,6.66
2023-01-17T06:25:45.540Z,6.61
2023-01-17T06:28:16.943Z,6.56
2023-01-17T06:30:44.961Z,6.51
2023-01-17T06:33:13.429Z,6.45
2023-01-17T06:35:43.261Z,6.37
2023-01-17T06:38:10.923Z,6.38
2023-01-17T06:40:38.869Z,6.34
2023-01-17T06:43:07.206Z,6.31
2023-01-17T06:45:35.809Z,6.29
2023-01-17T06:48:07.602Z,6.24
2023-01-17T06:50:35.600Z,6.29
2023-01-17T06:53:04.936Z,6.32
2023-01-17T06:55:33.812Z,6.29
2023-01-17T06:58:02.901Z,6.20
2023-01-17T07:00:31.132Z,6.15
2023-01-17T07:02:58.864Z,6.20
2023-01-17T07:05:26.065Z,6.27
2023-01-17T07:07:53.717Z,6.39
2023-01-17T07:10:22.034Z,6.52
2023-01-17T07:12:49.768Z,6.50
2023-01-17T07:15:18.466Z,6.51
2023-01-17T07:17:46.578Z,6.54
2023-01-17T07:20:14.749Z,6.64
2023-01-17T07:22:46.190Z,6.71
2023-01-17T07:25:13.686Z,6.69
2023-01-17T07:27:41.308Z,6.64
2023-01-17T07:30:12.896Z,6.65
2023-01-17T07:32:40.936Z,6.67
2023-01-17T07:35:10.651Z,6.68
2023-01-17T07:37:39.158Z,6.68
2023-01-17T07:40:09.730Z,6.66
2023-01-17T07:42:37.936Z,6.67
2023-01-17T07:45:09.041Z,6.69
2023-01-17T07:47:37.230Z,6.78
2023-01-17T07:50:13.421Z,6.78
2023-01-17T07:52:41.328Z,6.79
2023-01-17T07:55:10.907Z,6.81
2023-01-17T07:57:38.998Z,6.80
2023-01-17T08:00:09.907Z,6.75
2023-01-17T08:02:37.608Z,6.77
2023-01-17T08:05:07.513Z,6.83
2023-01-17T08:07:38.656Z,6.85
2023-01-17T08:10:08.821Z,6.90
2023-01-17T08:12:36.952Z,6.82
2023-01-17T08:15:06.741Z,6.94
2023-01-17T08:17:34.465Z,7.00
2023-01-17T08:20:02.789Z,7.08
2023-01-17T08:22:32.087Z,7.14
2023-01-17T08:25:04.024Z,7.17
2023-01-17T08:27:31.703Z,7.22
2023-01-17T08:29:59.896Z,7.28
2023-01-17T08:32:27.770Z,7.32
2023-01-17T08:34:57.273Z,7.33
2023-01-17T08:37:25.518Z,7.34
2023-01-17T08:39:53.150Z,7.41
2023-01-17T08:42:21.326Z,7.43
2023-01-17T08:44:49.412Z,7.38
2023-01-17T08:47:17.408Z,7.34
2023-01-17T08:49:44.871Z,7.29
2023-01-17T08:52:33.458Z,7.32
2023-01-17T08:55:01.106Z,7.30
2023-01-17T08:57:30.868Z,7.28
2023-01-17T08:59:59.139Z,7.22
2023-01-17T09:02:26.993Z,7.20
2023-01-17T09:04:54.981Z,7.25
2023-01-17T09:07:27.400Z,7.26
2023-01-17T09:09:55.563Z,7.25
2023-01-17T09:12:23.232Z,7.20
2023-01-17T09:14:51.309Z,7.20
2023-01-17T09:17:19.489Z,7.20
2023-01-17T09:19:48.869Z,7.18
2023-01-17T09:22:16.516Z,7.20
2023-01-17T09:24:44.482Z,7.19
2023-01-17T09:27:12.665Z,7.22
2023-01-17T09:29:40.748Z,7.24
2023-01-17T09:32:08.802Z,7.25
2023-01-17T09:34:37.120Z,7.31
2023-01-17T09:37:05.781Z,7.43
2023-01-17T09:39:33.837Z,7.46
2023-01-17T09:42:54.619Z,7.48
2023-01-17T09:45:30.931Z,7.47
2023-01-17T09:47:58.722Z,7.52
2023-01-17T09:50:34.319Z,7.54
2023-01-17T09:53:25.047Z,7.52
2023-01-17T09:56:06.641Z,7.56
2023-01-17T09:58:36.683Z,7.55
2023-01-17T10:01:10.380Z,7.60
2023-01-17T10:03:54.484Z,7.60
2023-01-17T10:06:45.719Z,7.71
2023-01-17T10:09:20.716Z,7.78
2023-01-17T10:12:10.979Z,7.82
2023-01-17T10:15:03.702Z,7.82
2023-01-17T10:17:58.125Z,7.80
2023-01-17T10:20:41.031Z,7.84
2023-01-17T10:23:11.000Z,7.81
2023-01-17T10:25:49.040Z,7.78
2023-01-17T10:28:19.752Z,7.81
2023-01-17T10:30:49.383Z,7.81
2023-01-17T10:33:25.903Z,7.73
2023-01-17T10:36:00.000Z,7.72
2023-01-17T10:38:37.703Z,7.75
2023-01-17T10:41:27.512Z,7.75
2023-01-17T10:43:57.238Z,7.72
2023-01-17T10:46:28.580Z,7.64
2023-01-17T10:48:55.456Z,7.66
2023-01-17T10:51:50.127Z,7.64
2023-01-17T10:54:29.550Z,7.61
2023-01-17T10:56:56.710Z,7.63
2023-01-17T10:59:34.413Z,7.69
2023-01-17T11:02:07.128Z,7.69
2023-01-17T11:04:39.483Z,7.69
2023-01-17T11:07:21.896Z,7.67
2023-01-17T11:09:51.441Z,7.69
2023-01-17T11:12:25.237Z,7.68
2023-01-17T11:15:00.317Z,7.61
2023-01-17T11:17:27.617Z,7.60
2023-01-17T11:19:55.394Z,7.56
2023-01-17T11:22:23.177Z,7.48
2023-01-17T11:24:53.769Z,7.46
2023-01-17T11:28:22.659Z,7.47
2023-01-17T11:30:55.620Z,7.37
2023-01-17T11:33:55.761Z,7.32
2023-01-17T11:36:27.696Z,7.33
2023-01-17T11:38:58.100Z,7.32
2023-01-17T11:41:29.348Z,7.24
2023-01-17T11:43:59.055Z,7.25
2023-01-17T11:46:28.553Z,7.27
2023-01-17T11:49:23.342Z,7.29
2023-01-17T11:51:56.100Z,7.39
2023-01-17T11:54:33.474Z,7.41
2023-01-17T11:57:00.757Z,7.46
2023-01-17T11:59:34.827Z,7.46
2023-01-17T12:02:32.024Z,7.49
2023-01-17T12:05:02.159Z,7.54
2023-01-17T12:07:41.171Z,7.60
2023-01-17T12:10:17.126Z,7.75
2023-01-17T12:13:08.329Z,7.77
2023-01-17T12:16:31.108Z,7.88
2023-01-17T12:19:10.753Z,7.90
2023-01-17T12:21:49.361Z,7.90
2023-01-17T12:24:53.410Z,7.93
2023-01-17T12:27:24.908Z,8.04
2023-01-17T12:30:12.800Z,8.08
2023-01-17T12:32:58.425Z,8.18
2023-01-17T12:35:40.092Z,8.29
2023-01-17T12:38:11.410Z,8.36
2023-01-17T12:40:52.127Z,8.47
2023-01-17T12:43:26.493Z,8.56
2023-01-17T12:45:54.695Z,8.63
2023-01-17T12:48:23.134Z,8.66
2023-01-17T12:50:57.362Z,8.65
2023-01-17T12:53:24.459Z,8.62
2023-01-17T12:55:57.595Z,8.63
2023-01-17T12:58:30.969Z,8.56
2023-01-17T13:01:07.518Z,8.52
2023-01-17T13:03:47.995Z,8.54
2023-01-17T13:06:47.084Z,8.57
2023-01-17T13:09:15.013Z,8.59
2023-01-17T13:12:13.667Z,8.68
2023-01-17T13:14:44.159Z,8.72
2023-01-17T13:17:31.797Z,8.72
2023-01-17T13:20:09.972Z,8.72
2023-01-17T13:22:38.385Z,8.75
2023-01-17T13:25:27.304Z,8.75
2023-01-17T13:28:23.059Z,8.76
2023-01-17T13:31:09.684Z,8.75
2023-01-17T13:33:39.683Z,8.77
2023-01-17T13:36:31.317Z,8.77
2023-01-17T13:39:05.462Z,8.80
2023-01-17T13:41:44.535Z,8.73
2023-01-17T13:44:32.549Z,8.78
2023-01-17T13:47:18.257Z,8.81
2023-01-17T13:49:48.896Z,8.79
2023-01-17T13:52:19.520Z,8.79
2023-01-17T13:54:55.477Z,8.81
2023-01-17T13:57:29.726Z,8.77
2023-01-17T14:00:24.761Z,8.79
2023-01-17T14:02:52.892Z,8.80
2023-01-17T14:05:23.105Z,8.77
2023-01-17T14:07:58.818Z,8.79
2023-01-17T14:10:40.063Z,8.80
2023-01-17T14:13:30.084Z,8.82
2023-01-17T14:15:57.909Z,8.84
2023-01-17T14:18:37.115Z,8.88
2023-01-17T14:21:33.666Z,8.78
2023-01-17T14:24:13.647Z,8.78
2023-01-17T14:26:44.048Z,8.79
2023-01-17T14:29:49.091Z,8.82
2023-01-17T14:34:51.704Z,8.84
2023-01-17T14:37:24.622Z,8.81
2023-01-17T14:39:52.363Z,8.79
2023-01-17T14:42:21.610Z,8.75
2023-01-17T14:44:53.244Z,8.74
2023-01-17T14:47:20.351Z,8.70
2023-01-17T14:49:48.317Z,8.72
2023-01-17T14:52:17.689Z,8.72
2023-01-17T14:54:49.783Z,8.68
2023-01-17T14:57:28.391Z,8.70
2023-01-17T15:00:20.905Z,8.68
2023-01-17T15:02:48.591Z,8.65
2023-01-17T15:05:16.481Z,8.54
2023-01-17T15:07:43.977Z,8.53
2023-01-17T15:10:13.007Z,8.52
2023-01-17T15:12:41.146Z,8.45
2023-01-17T15:15:27.243Z,8.42
2023-01-17T15:18:09.618Z,8.33
2023-01-17T15:20:36.808Z,8.32
2023-01-17T15:23:05.324Z,8.28
2023-01-17T15:25:33.517Z,8.26
2023-01-17T15:28:01.433Z,8.20
2023-01-17T15:30:29.586Z,8.18
2023-01-17T15:32:56.809Z,8.16
2023-01-17T15:35:28.390Z,8.13
2023-01-17T15:37:55.986Z,8.13
2023-01-17T15:40:24.841Z,8.13
2023-01-17T15:43:17.107Z,8.12
2023-01-17T15:45:44.429Z,8.10
2023-01-17T15:48:34.070Z,8.10
2023-01-17T15:51:03.056Z,8.08
2023-01-17T15:53:32.723Z,8.08
2023-01-17T15:55:59.954Z,8.07
2023-01-17T15:58:31.389Z,8.05
2023-01-17T16:00:59.361Z,8.05
2023-01-17T16:03:29.400Z,8.01
2023-01-17T16:06:00.220Z,8.00
2023-01-17T16:08:29.514Z,7.98
2023-01-17T16:11:02.331Z,7.98
2023-01-17T16:13:39.384Z,7.99
2023-01-17T16:16:12.971Z,7.97
2023-01-17T16:18:40.779Z,7.95
2023-01-17T16:21:22.143Z,7.98
2023-01-17T16:23:50.278Z,7.99
2023-01-17T16:26:17.259Z,7.86
2023-01-17T16:28:48.421Z,7.89
2023-01-17T16:31:17.423Z,7.85
2023-01-17T16:33:46.124Z,7.90
2023-01-17T16:36:17.490Z,7.89
2023-01-17T16:38:45.957Z,7.84
2023-01-17T16:41:13.709Z,7.70
2023-01-17T16:43:42.033Z,7.64
2023-01-17T16:46:12.029Z,7.62
2023-01-17T16:48:40.133Z,7.66
2023-01-17T16:51:07.749Z,7.59
2023-01-17T16:53:36.767Z,7.53
2023-01-17T16:56:12.114Z,7.45
2023-01-17T16:58:40.111Z,7.45
2023-01-17T17:01:12.128Z,7.44
2023-01-17T17:03:40.074Z,7.44
2023-01-17T17:06:08.967Z,7.40
2023-01-17T17:08:38.076Z,7.38
2023-01-17T17:11:15.477Z,7.33
2023-01-17T17:13:43.779Z,7.33
2023-01-17T17:16:21.322Z,7.30
2023-01-17T17:18:56.071Z,7.30
2023-01-17T17:21:24.236Z,7.29
2023-01-17T17:23:57.044Z,7.21
2023-01-17T17:26:31.069Z,7.24
2023-01-17T17:28:58.632Z,7.25
2023-01-17T17:31:26.735Z,7.17
2023-01-17T17:33:58.275Z,7.16
2023-01-17T17:36:25.960Z,7.21
2023-01-17T17:38:55.480Z,7.19
2023-01-17T17:41:27.896Z,7.14
2023-01-17T17:43:55.384Z,7.11
2023-01-17T17:46:23.711Z,7.16
2023-01-17T17:48:51.992Z,7.17
2023-01-17T17:51:34.016Z,7.15
2023-01-17T17:54:12.098Z,7.21
2023-01-17T17:56:40.053Z,7.17
2023-01-17T17:59:09.096Z,7.15
2023-01-17T18:01:41.081Z,7.17
2023-01-17T18:04:08.898Z,7.18
2023-01-17T18:06:40.755Z,7.20
2023-01-17T18:09:08.901Z,7.13
2023-01-17T18:11:36.906Z,7.24
2023-01-17T18:14:04.976Z,7.16
2023-01-17T18:16:35.599Z,7.20
2023-01-17T18:19:05.343Z,7.11
2023-01-17T18:21:34.220Z,7.14
2023-01-17T18:24:08.459Z,7.15
2023-01-17T18:26:59.206Z,7.07
2023-01-17T18:29:27.323Z,7.09
2023-01-17T18:31:55.645Z,7.07
2023-01-17T18:34:27.105Z,7.16
2023-01-17T18:36:54.978Z,7.14
2023-01-17T18:39:27.055Z,7.11
2023-01-17T18:41:54.739Z,7.11
2023-01-17T18:44:22.657Z,7.10
2023-01-17T18:46:50.989Z,7.03
2023-01-17T18:49:21.065Z,7.06
2023-01-17T18:51:51.509Z,7.01
2023-01-17T18:54:19.526Z,6.87
2023-01-17T18:56:47.626Z,6.93
2023-01-17T18:59:18.858Z,6.95
2023-01-17T19:01:53.090Z,7.04
2023-01-17T19:04:21.719Z,7.08
2023-01-17T19:06:49.525Z,7.03
2023-01-17T19:09:17.378Z,6.99
2023-01-17T19:11:47.676Z,6.87
2023-01-17T19:14:15.828Z,6.84
2023-01-17T19:16:43.784Z,6.86
2023-01-17T19:19:13.530Z,6.85
2023-01-17T19:21:42.593Z,6.82
2023-01-17T19:24:11.147Z,6.77
2023-01-17T19:26:39.292Z,6.70
2023-01-17T19:29:07.656Z,6.73
2023-01-17T19:31:39.763Z,6.78
2023-01-17T19:34:07.632Z,6.70
2023-01-17T19:36:36.809Z,6.72
2023-01-17T19:39:06.699Z,6.73
2023-01-17T19:41:35.236Z,6.69
2023-01-17T19:44:26.911Z,6.69
2023-01-17T19:46:56.439Z,6.67
2023-01-17T19:49:26.580Z,6.64
2023-01-17T19:51:54.709Z,6.67
2023-01-17T19:54:23.405Z,6.67
2023-01-17T19:56:51.455Z,6.70
2023-01-17T19:59:20.178Z,6.67
2023-01-17T20:01:48.936Z,6.72
2023-01-17T20:04:19.468Z,6.65
2023-01-17T20:06:47.251Z,6.66
2023-01-17T20:09:15.328Z,6.71
2023-01-17T20:11:45.649Z,6.70
2023-01-17T20:14:15.383Z,6.74
2023-01-17T20:16:47.572Z,6.70
2023-01-17T20:19:15.859Z,6.73
2023-01-17T20:21:44.299Z,6.70
2023-01-17T20:24:14.241Z,6.66
2023-01-17T20:26:44.216Z,6.65
2023-01-17T20:29:13.724Z,6.56
2023-01-17T20:31:41.421Z,6.60
2023-01-17T20:34:10.726Z,6.60
2023-01-17T20:36:38.906Z,6.55
2023-01-17T20:39:09.802Z,6.60
2023-01-17T20:41:38.827Z,6.58
2023-01-17T20:44:06.982Z,6.54
2023-01-17T20:46:40.610Z,6.55
2023-01-17T20:49:13.477Z,6.56
2023-01-17T20:51:42.118Z,6.53
2023-01-17T20:54:12.950Z,6.53
2023-01-17T20:56:41.305Z,6.47
2023-01-17T20:59:09.834Z,6.47
2023-01-17T21:01:38.239Z,6.51
2023-01-17T21:04:10.167Z,6.47
2023-01-17T21:06:38.889Z,6.50
2023-01-17T21:09:07.530Z,6.56
2023-01-17T21:11:35.915Z,6.57
2023-01-17T21:14:05.804Z,6.64
2023-01-17T21:16:34.484Z,6.59
2023-01-17T21:19:02.291Z,6.58
2023-01-17T21:21:30.267Z,6.48
2023-01-17T21:23:59.316Z,6.45
2023-01-17T21:26:28.122Z,6.40
2023-01-17T21:28:56.591Z,6.42
2023-01-17T21:31:29.122Z,6.43
2023-01-17T21:34:27.915Z,6.51
2023-01-17T21:36:55.559Z,6.55
2023-01-17T21:39:23.994Z,6.59
2023-01-17T21:41:52.124Z,6.56
2023-01-17T21:44:21.607Z,6.51
2023-01-17T21:46:49.459Z,6.54
2023-01-17T21:49:17.238Z,6.61
2023-01-17T21:51:53.792Z,6.61
2023-01-17T21:54:48.052Z,6.65
2023-01-17T21:57:39.283Z,6.68
2023-01-17T22:00:12.149Z,6.70
2023-01-17T22:02:41.487Z,6.68
2023-01-17T22:05:11.894Z,6.71
2023-01-17T22:07:39.176Z,6.66
2023-01-17T22:10:08.485Z,6.68
2023-01-17T22:12:37.396Z,6.68
2023-01-17T22:15:08.208Z,6.68
2023-01-17T22:17:38.407Z,6.70
2023-01-17T22:20:11.882Z,6.78
2023-01-17T22:22:40.135Z,6.77
2023-01-17T22:25:09.355Z,6.75
2023-01-17T22:27:37.337Z,6.74
2023-01-17T22:30:12.985Z,6.74
2023-01-17T22:32:40.489Z,6.75
2023-01-17T22:35:09.765Z,6.81
2023-01-17T22:37:37.997Z,6.78
2023-01-17T22:40:10.165Z,6.77
2023-01-17T22:42:38.413Z,6.76
2023-01-17T22:45:10.325Z,6.79
2023-01-17T22:47:39.020Z,6.69
2023-01-17T22:50:06.886Z,6.69
2023-01-17T22:52:35.874Z,6.71
2023-01-17T22:55:03.936Z,6.79
2023-01-17T22:57:31.770Z,6.72
2023-01-17T23:00:00.161Z,6.58
2023-01-17T23:02:28.597Z,6.52
2023-01-17T23:04:56.697Z,6.53
2023-01-17T23:07:27.122Z,6.52
2023-01-17T23:09:55.255Z,6.53
2023-01-17T23:12:23.530Z,6.53
2023-01-17T23:15:09.720Z,6.52
2023-01-17T23:17:56.325Z,6.50
2023-01-17T23:20:24.523Z,6.50
2023-01-17T23:22:52.324Z,6.52
2023-01-17T23:25:20.550Z,6.49
2023-01-17T23:28:07.113Z,6.44
2023-01-17T23:30:38.005Z,6.42
2023-01-17T23:33:14.970Z,6.41
2023-01-17T23:35:45.077Z,6.46
2023-01-17T23:38:33.810Z,6.49
2023-01-17T23:41:23.319Z,6.47
2023-01-17T23:43:54.056Z,6.43
2023-01-17T23:46:30.073Z,6.46
2023-01-17T23:48:58.405Z,6.46
2023-01-17T23:51:27.096Z,6.47
2023-01-17T23:54:05.402Z,6.37
2023-01-17T23:56:33.575Z,6.41
2023-01-17T23:59:01.265Z,6.38
